createdAt,value
2022-08-17T00:01:26.265Z,57.13
2022-08-17T00:06:31.608Z,60.32
2022-08-17T00:11:38.797Z,67.96
2022-08-17T00:16:57.314Z,60.93
2022-08-17T00:22:31.323Z,56.80
2022-08-17T00:27:26.223Z,59.78
2022-08-17T00:33:12.321Z,66.99
2022-08-17T00:37:52.086Z,60.19
2022-08-17T00:42:54.783Z,57.05
2022-08-17T00:47:57.476Z,60.10
2022-08-17T00:53:00.302Z,66.11
2022-08-17T01:04:46.276Z,58.34
2022-08-17T01:09:51.367Z,61.00
2022-08-17T01:14:54.035Z,68.58
2022-08-17T01:19:56.871Z,60.99
2022-08-17T01:25:02.130Z,56.80
2022-08-17T01:30:56.731Z,59.51
2022-08-17T01:35:32.356Z,65.43
2022-08-17T01:40:43.238Z,58.27
2022-08-17T01:45:49.190Z,58.23
2022-08-17T01:51:07.599Z,60.24
2022-08-17T01:56:14.488Z,67.69
2022-08-17T02:01:19.976Z,61.01
2022-08-17T02:06:27.525Z,56.80
2022-08-17T02:11:33.995Z,59.77
2022-08-17T02:16:40.333Z,65.39
2022-08-17T02:21:46.320Z,58.70
2022-08-17T02:26:49.085Z,57.74
2022-08-17T02:31:51.766Z,59.88
2022-08-17T02:36:54.947Z,66.74
2022-08-17T02:42:02.311Z,59.28
2022-08-17T02:47:05.282Z,57.74
2022-08-17T02:52:08.180Z,60.78
2022-08-17T02:57:11.219Z,66.60
2022-08-17T03:02:13.921Z,59.14
2022-08-17T03:07:16.779Z,57.57
2022-08-17T03:12:19.508Z,60.87
2022-08-17T03:17:22.310Z,66.20
2022-08-17T03:22:36.623Z,58.43
2022-08-17T03:27:42.053Z,58.36
2022-08-17T03:32:48.922Z,61.88
2022-08-17T03:37:56.932Z,66.36
2022-08-17T03:43:09.210Z,59.02
2022-08-17T03:48:30.876Z,58.06
2022-08-17T03:53:52.577Z,62.66
2022-08-17T03:58:55.259Z,63.81
2022-08-17T04:03:57.941Z,57.54
2022-08-17T04:09:00.670Z,60.96
2022-08-17T04:14:05.036Z,65.76
2022-08-17T04:19:07.776Z,59.99
2022-08-17T04:24:10.472Z,58.30
2022-08-17T04:29:13.183Z,63.30
2022-08-17T04:34:19.666Z,63.86
2022-08-17T04:39:25.132Z,57.68
2022-08-17T04:44:37.535Z,60.30
2022-08-17T04:49:40.943Z,65.46
2022-08-17T04:54:43.686Z,58.01
2022-08-17T04:59:46.416Z,58.54
2022-08-17T05:04:50.054Z,61.83
2022-08-17T05:09:52.804Z,65.24
2022-08-17T05:14:55.488Z,57.85
2022-08-17T05:19:58.145Z,59.65
2022-08-17T05:25:01.901Z,64.86
2022-08-17T05:30:06.546Z,57.87
2022-08-17T05:35:09.578Z,57.49
2022-08-17T05:40:13.146Z,60.88
2022-08-17T05:45:23.636Z,66.14
2022-08-17T05:51:05.260Z,56.97
2022-08-17T05:56:30.156Z,58.17
2022-08-17T06:02:03.056Z,60.28
2022-08-17T06:07:25.843Z,64.48
2022-08-17T06:12:31.302Z,56.53
2022-08-17T06:17:35.657Z,56.77
2022-08-17T06:22:46.166Z,59.27
2022-08-17T06:28:14.753Z,62.60
2022-08-17T06:33:22.731Z,55.02
2022-08-17T06:38:53.354Z,56.95
2022-08-17T06:44:43.336Z,58.17
2022-08-17T06:49:55.249Z,62.17
2022-08-17T06:55:20.266Z,54.48
2022-08-17T07:00:28.409Z,56.52
2022-08-17T07:05:38.768Z,57.24
2022-08-17T07:10:51.218Z,58.87
2022-08-17T07:16:17.542Z,60.50
2022-08-17T07:21:47.177Z,63.14
2022-08-17T07:27:23.586Z,55.05
2022-08-17T07:32:37.021Z,56.26
2022-08-17T07:37:53.298Z,58.75
2022-08-17T07:43:05.797Z,60.14
2022-08-17T07:48:21.464Z,60.49
2022-08-17T07:53:26.262Z,64.90
2022-08-17T07:58:28.970Z,54.21
2022-08-17T08:03:34.090Z,55.94
2022-08-17T08:08:50.599Z,58.14
2022-08-17T08:13:53.378Z,59.78
2022-08-17T08:19:02.950Z,60.07
2022-08-17T08:24:24.248Z,60.49
2022-08-17T08:30:04.941Z,61.23
2022-08-17T08:35:17.533Z,59.26
2022-08-17T08:40:32.314Z,60.39
2022-08-17T08:45:53.174Z,58.88
2022-08-17T08:51:21.855Z,58.73
2022-08-17T08:56:35.475Z,58.67
2022-08-17T09:02:11.743Z,59.28
2022-08-17T09:07:57.274Z,58.40
2022-08-17T09:13:10.980Z,57.54
2022-08-17T09:19:01.090Z,57.45
2022-08-17T09:24:13.138Z,57.39
2022-08-17T09:29:17.854Z,57.46
2022-08-17T09:34:33.334Z,57.47
2022-08-17T09:39:50.379Z,57.11
2022-08-17T09:45:22.009Z,56.30
2022-08-17T09:50:55.375Z,55.49
2022-08-17T09:56:09.527Z,54.88
2022-08-17T10:01:48.229Z,52.07
2022-08-17T10:07:19.224Z,51.01
2022-08-17T10:12:47.004Z,50.27
2022-08-17T10:18:31.894Z,50.90
2022-08-17T10:23:54.773Z,51.14
2022-08-17T10:28:58.346Z,50.05
2022-08-17T10:34:19.443Z,50.45
2022-08-17T10:39:50.566Z,50.13
2022-08-17T10:45:05.692Z,49.54
2022-08-17T10:50:46.440Z,49.34
2022-08-17T10:56:22.665Z,49.12
2022-08-17T11:01:58.088Z,49.73
2022-08-17T11:07:19.286Z,49.13
2022-08-17T11:12:36.883Z,48.66
2022-08-17T11:18:05.713Z,47.51
2022-08-17T11:23:14.728Z,47.28
2022-08-17T11:28:24.256Z,46.82
2022-08-17T11:33:29.453Z,45.78
2022-08-17T11:38:42.069Z,45.02
2022-08-17T11:44:10.603Z,45.64
2022-08-17T11:49:44.007Z,46.38
2022-08-17T11:54:48.638Z,47.07
2022-08-17T11:59:55.693Z,46.65
2022-08-17T12:05:27.301Z,45.57
2022-08-17T12:10:34.327Z,45.70
2022-08-17T12:15:49.303Z,46.15
2022-08-17T12:21:13.509Z,46.49
2022-08-17T12:26:27.211Z,46.06
2022-08-17T12:31:51.919Z,46.59
2022-08-17T12:37:04.959Z,46.50
2022-08-17T12:42:23.946Z,45.77
2022-08-17T12:47:30.059Z,45.07
2022-08-17T12:52:39.953Z,44.25
2022-08-17T12:57:47.573Z,42.08
2022-08-17T13:03:15.763Z,41.97
2022-08-17T13:08:23.569Z,42.27
2022-08-17T13:13:34.988Z,41.93
2022-08-17T13:18:40.666Z,43.11
2022-08-17T13:24:05.779Z,44.04
2022-08-17T13:29:19.413Z,44.40
2022-08-17T13:34:28.002Z,44.03
2022-08-17T13:39:41.398Z,43.21
2022-08-17T13:44:44.550Z,42.83
2022-08-17T13:49:49.437Z,42.96
2022-08-17T13:54:52.663Z,41.40
2022-08-17T14:00:15.937Z,40.45
2022-08-17T14:05:18.735Z,40.68
2022-08-17T14:10:21.828Z,41.21
2022-08-17T14:15:55.832Z,41.97
2022-08-17T14:20:48.754Z,42.55
2022-08-17T14:25:51.470Z,43.12
2022-08-17T14:30:54.407Z,43.29
2022-08-17T14:35:57.719Z,43.16
2022-08-17T14:41:00.440Z,42.08
2022-08-17T14:46:03.146Z,41.10
2022-08-17T14:51:06.536Z,38.70
2022-08-17T14:56:09.231Z,38.57
2022-08-17T15:01:13.723Z,37.47
2022-08-17T15:06:17.020Z,36.96
2022-08-17T15:11:19.806Z,36.44
2022-08-17T15:16:22.776Z,38.05
2022-08-17T15:21:25.797Z,37.02
2022-08-17T15:26:28.666Z,36.68
2022-08-17T15:31:32.139Z,36.79
2022-08-17T15:36:35.871Z,37.51
2022-08-17T15:41:38.639Z,37.68
2022-08-17T15:46:41.504Z,37.90
2022-08-17T15:51:44.346Z,38.41
2022-08-17T15:56:47.200Z,39.04
2022-08-17T16:03:14.515Z,39.49
2022-08-17T16:07:14.517Z,37.55
2022-08-17T16:12:20.737Z,36.23
2022-08-17T16:17:38.866Z,34.82
2022-08-17T16:22:46.931Z,34.08
2022-08-17T16:27:54.565Z,34.48
2022-08-17T16:33:00.436Z,35.51
2022-08-17T16:38:03.501Z,36.58
2022-08-17T16:43:10.693Z,37.66
2022-08-17T16:48:15.453Z,38.76
2022-08-17T16:53:19.661Z,39.61
2022-08-17T16:58:22.719Z,40.31
2022-08-17T17:03:27.765Z,41.08
2022-08-17T17:08:49.163Z,42.10
2022-08-17T17:13:58.534Z,42.96
2022-08-17T17:19:12.501Z,44.00
2022-08-17T17:24:50.090Z,44.78
2022-08-17T17:30:13.251Z,45.77
2022-08-17T17:35:25.304Z,45.92
2022-08-17T17:40:50.226Z,46.90
2022-08-17T17:46:07.706Z,46.86
2022-08-17T17:51:45.631Z,47.40
2022-08-17T17:57:09.697Z,47.76
2022-08-17T18:02:53.717Z,49.00
2022-08-17T18:08:10.619Z,49.21
2022-08-17T18:13:27.259Z,50.85
2022-08-17T18:18:38.679Z,50.38
2022-08-17T18:23:51.575Z,51.93
2022-08-17T18:28:54.323Z,51.90
2022-08-17T18:34:46.114Z,52.93
2022-08-17T18:39:46.265Z,53.07
2022-08-17T18:44:54.329Z,53.65
2022-08-17T18:50:19.279Z,55.10
2022-08-17T18:55:24.847Z,55.08
2022-08-17T19:00:30.666Z,55.42
2022-08-17T19:06:07.767Z,56.03
2022-08-17T19:11:33.938Z,56.54
2022-08-17T19:16:51.765Z,56.99
2022-08-17T19:21:59.065Z,57.37
2022-08-17T19:27:19.943Z,58.28
2022-08-17T19:32:29.165Z,58.83
2022-08-17T19:38:12.989Z,58.59
2022-08-17T19:43:48.122Z,58.08
2022-08-17T19:48:55.019Z,59.62
2022-08-17T19:54:24.807Z,61.69
2022-08-17T20:00:02.377Z,70.21
2022-08-17T20:05:11.672Z,57.93
2022-08-17T20:10:27.034Z,57.47
2022-08-17T20:15:34.054Z,58.59
2022-08-17T20:21:01.391Z,59.97
2022-08-17T20:26:34.706Z,60.68
2022-08-17T20:31:44.535Z,60.71
2022-08-17T20:37:10.514Z,60.38
2022-08-17T20:42:22.135Z,70.63
2022-08-17T20:47:32.056Z,60.75
2022-08-17T20:52:41.387Z,55.42
2022-08-17T20:57:46.416Z,56.83
2022-08-17T21:03:10.262Z,58.62
2022-08-17T21:08:16.650Z,59.90
2022-08-17T21:13:25.855Z,68.37
2022-08-17T21:18:28.444Z,60.63
2022-08-17T21:23:52.633Z,55.88
2022-08-17T21:29:31.424Z,58.39
2022-08-17T21:34:35.511Z,61.25
2022-08-17T21:39:41.125Z,66.41
2022-08-17T21:44:50.436Z,58.94
2022-08-17T21:49:55.303Z,56.35
2022-08-17T21:55:02.552Z,58.41
2022-08-17T22:00:15.992Z,59.12
2022-08-17T22:05:29.997Z,60.58
2022-08-17T22:10:42.794Z,70.15
2022-08-17T22:16:15.404Z,62.20
2022-08-17T22:21:30.036Z,55.66
2022-08-17T22:26:59.805Z,57.39
2022-08-17T22:32:02.618Z,60.23
2022-08-17T22:37:29.108Z,69.68
2022-08-17T22:42:32.300Z,61.95
2022-08-17T22:47:39.467Z,56.53
2022-08-17T22:53:04.502Z,59.73
2022-08-17T22:58:31.258Z,62.33
2022-08-17T23:03:53.554Z,65.13
2022-08-17T23:08:57.786Z,57.19
2022-08-17T23:14:00.582Z,60.48
2022-08-17T23:19:03.283Z,65.89
2022-08-17T23:24:08.930Z,58.05
2022-08-17T23:29:11.694Z,58.58
2022-08-17T23:34:15.360Z,61.35
2022-08-17T23:39:24.384Z,66.96
2022-08-17T23:44:28.933Z,58.35
2022-08-17T23:49:32.607Z,57.99
2022-08-17T23:54:41.628Z,62.00
2022-08-17T23:59:44.632Z,64.40
